createdAt,value
2022-11-05T00:00:31.541Z,80.27
2022-11-05T00:03:17.139Z,80.50
2022-11-05T00:06:03.541Z,79.91
2022-11-05T00:08:49.022Z,80.48
2022-11-05T00:11:18.672Z,80.60
2022-11-05T00:14:04.053Z,80.11
2022-11-05T00:16:47.109Z,80.52
2022-11-05T00:19:15.058Z,80.46
2022-11-05T00:22:00.133Z,80.47
2022-11-05T00:24:45.367Z,80.71
2022-11-05T00:27:15.046Z,80.83
2022-11-05T00:29:42.984Z,81.03
2022-11-05T00:32:10.855Z,80.57
2022-11-05T00:34:38.660Z,80.41
2022-11-05T00:37:06.478Z,80.87
2022-11-05T00:39:34.333Z,80.72
2022-11-05T00:42:19.651Z,80.42
2022-11-05T00:45:02.096Z,80.55
2022-11-05T00:47:48.509Z,80.52
2022-11-05T00:50:16.828Z,80.82
2022-11-05T00:52:56.803Z,80.67
2022-11-05T00:55:26.125Z,81.15
2022-11-05T00:57:54.031Z,80.76
2022-11-05T01:00:24.563Z,80.72
2022-11-05T01:02:52.575Z,80.58
2022-11-05T01:05:20.713Z,80.74
2022-11-05T01:07:48.601Z,80.81
2022-11-05T01:10:16.452Z,81.27
2022-11-05T01:12:44.575Z,80.94
2022-11-05T01:15:12.618Z,80.49
2022-11-05T01:17:41.965Z,80.98
2022-11-05T01:20:10.985Z,81.15
2022-11-05T01:22:38.918Z,80.95
2022-11-05T01:25:08.523Z,80.60
2022-11-05T01:27:37.401Z,80.57
2022-11-05T01:30:06.159Z,80.32
2022-11-05T01:32:35.341Z,80.63
2022-11-05T01:35:04.913Z,80.59
2022-11-05T01:37:33.193Z,80.60
2022-11-05T01:40:01.021Z,80.87
2022-11-05T01:42:29.725Z,81.33
2022-11-05T01:45:00.699Z,81.36
2022-11-05T01:47:40.411Z,81.14
2022-11-05T01:50:28.503Z,81.44
2022-11-05T01:53:02.500Z,80.80
2022-11-05T01:55:35.482Z,80.54
2022-11-05T01:58:07.656Z,80.82
2022-11-05T02:00:36.113Z,81.02
2022-11-05T02:03:04.017Z,80.93
2022-11-05T02:05:34.875Z,80.98
2022-11-05T02:08:03.689Z,81.02
2022-11-05T02:10:31.781Z,81.22
2022-11-05T02:13:00.245Z,81.02
2022-11-05T02:15:37.818Z,80.78
2022-11-05T02:18:18.500Z,80.83
2022-11-05T02:20:56.117Z,80.51
2022-11-05T02:23:59.418Z,80.71
2022-11-05T02:26:59.706Z,80.64
2022-11-05T02:29:55.902Z,80.56
2022-11-05T02:32:38.693Z,80.47
2022-11-05T02:35:23.027Z,81.05
2022-11-05T02:37:54.381Z,80.73
2022-11-05T02:40:30.274Z,80.91
2022-11-05T02:43:04.869Z,80.94
2022-11-05T02:45:48.204Z,80.85
2022-11-05T02:48:25.597Z,80.90
2022-11-05T02:50:59.758Z,81.09
2022-11-05T02:53:35.001Z,81.19
2022-11-05T02:56:08.797Z,81.58
2022-11-05T02:58:36.640Z,81.31
2022-11-05T03:01:07.822Z,80.93
2022-11-05T03:03:41.080Z,81.18
2022-11-05T03:06:49.552Z,81.08
2022-11-05T03:09:45.283Z,80.92
2022-11-05T03:12:23.045Z,80.90
2022-11-05T03:15:00.623Z,80.93
2022-11-05T03:17:37.655Z,80.64
2022-11-05T03:20:18.910Z,80.62
2022-11-05T03:22:52.886Z,80.79
2022-11-05T03:25:23.730Z,81.12
2022-11-05T03:27:55.769Z,80.36
2022-11-05T03:30:25.049Z,80.69
2022-11-05T03:32:58.009Z,80.59
2022-11-05T03:35:31.845Z,80.69
2022-11-05T03:38:04.717Z,80.50
2022-11-05T03:40:36.025Z,80.50
2022-11-05T03:43:07.757Z,80.74
2022-11-05T03:45:39.925Z,80.65
2022-11-05T03:48:10.521Z,80.88
2022-11-05T03:50:44.354Z,80.52
2022-11-05T03:53:16.511Z,80.70
2022-11-05T03:55:52.050Z,80.55
2022-11-05T03:58:22.477Z,80.80
2022-11-05T04:00:52.110Z,80.84
2022-11-05T04:03:20.377Z,80.66
2022-11-05T04:06:10.415Z,80.85
2022-11-05T04:08:55.684Z,80.47
2022-11-05T04:11:41.111Z,81.04
2022-11-05T04:14:08.909Z,80.60
2022-11-05T04:17:02.789Z,80.48
2022-11-05T04:19:48.178Z,80.38
2022-11-05T04:22:34.593Z,80.55
2022-11-05T04:25:02.485Z,80.75
2022-11-05T04:27:30.313Z,80.54
2022-11-05T04:30:15.374Z,80.38
2022-11-05T04:32:43.198Z,80.63
2022-11-05T04:35:11.003Z,80.89
2022-11-05T04:37:40.229Z,80.76
2022-11-05T04:40:09.188Z,81.04
2022-11-05T04:42:36.964Z,80.73
2022-11-05T04:45:05.456Z,80.92
2022-11-05T04:47:33.269Z,80.90
2022-11-05T04:50:01.183Z,80.65
2022-11-05T04:52:29.014Z,80.77
2022-11-05T04:54:58.253Z,80.75
2022-11-05T04:57:26.029Z,81.07
2022-11-05T04:59:55.048Z,81.67
2022-11-05T05:02:22.866Z,81.53
2022-11-05T05:04:50.669Z,81.37
2022-11-05T05:07:18.844Z,81.55
2022-11-05T05:09:46.617Z,81.63
2022-11-05T05:12:16.264Z,81.93
2022-11-05T05:14:44.111Z,82.16
2022-11-05T05:17:11.964Z,82.85
2022-11-05T05:19:53.599Z,83.59
2022-11-05T05:22:21.385Z,83.66
2022-11-05T05:24:52.711Z,83.85
2022-11-05T05:27:22.841Z,84.93
2022-11-05T05:29:50.690Z,85.27
2022-11-05T05:32:18.567Z,85.52
2022-11-05T05:34:46.374Z,85.95
2022-11-05T05:37:14.219Z,86.52
2022-11-05T05:39:42.071Z,86.28
2022-11-05T05:42:09.951Z,86.85
2022-11-05T05:44:39.598Z,87.08
2022-11-05T05:47:07.838Z,87.56
2022-11-05T05:49:35.664Z,87.71
2022-11-05T05:52:03.580Z,87.28
2022-11-05T05:54:34.206Z,87.59
2022-11-05T05:57:04.875Z,87.73
2022-11-05T05:59:32.707Z,87.64
2022-11-05T06:02:02.164Z,87.44
2022-11-05T06:04:30.032Z,87.69
2022-11-05T06:06:57.924Z,87.53
2022-11-05T06:09:25.933Z,87.42
2022-11-05T06:11:53.778Z,87.38
2022-11-05T06:14:22.000Z,87.61
2022-11-05T06:16:49.698Z,87.30
2022-11-05T06:19:19.028Z,87.53
2022-11-05T06:21:46.928Z,87.53
2022-11-05T06:24:14.775Z,87.20
2022-11-05T06:26:43.540Z,87.47
2022-11-05T06:29:11.533Z,87.52
2022-11-05T06:31:39.351Z,87.69
2022-11-05T06:34:07.198Z,87.67
2022-11-05T06:36:36.396Z,87.80
2022-11-05T06:39:04.786Z,88.00
2022-11-05T06:41:45.683Z,87.89
2022-11-05T06:44:21.510Z,87.66
2022-11-05T06:46:49.365Z,87.53
2022-11-05T06:49:17.118Z,87.71
2022-11-05T06:51:46.593Z,87.99
2022-11-05T06:54:14.382Z,88.05
2022-11-05T06:56:42.187Z,87.91
2022-11-05T06:59:10.000Z,87.81
2022-11-05T07:01:38.596Z,88.33
2022-11-05T07:04:06.452Z,88.06
2022-11-05T07:06:36.999Z,87.85
2022-11-05T07:09:06.686Z,87.89
2022-11-05T07:11:34.470Z,87.95
2022-11-05T07:14:02.488Z,87.86
2022-11-05T07:16:30.307Z,88.06
2022-11-05T07:18:58.186Z,88.10
2022-11-05T07:21:26.199Z,87.73
2022-11-05T07:23:54.152Z,87.91
2022-11-05T07:26:23.423Z,88.14
2022-11-05T07:28:51.212Z,87.57
2022-11-05T07:31:19.041Z,87.84
2022-11-05T07:33:46.803Z,87.70
2022-11-05T07:36:14.916Z,87.82
2022-11-05T07:38:42.714Z,87.33
2022-11-05T07:41:10.519Z,87.83
2022-11-05T07:43:39.736Z,88.01
2022-11-05T07:46:12.663Z,88.27
2022-11-05T07:48:41.587Z,88.18
2022-11-05T07:51:09.412Z,88.18
2022-11-05T07:53:42.446Z,88.02
2022-11-05T07:56:13.493Z,88.06
2022-11-05T07:58:43.234Z,88.22
2022-11-05T08:01:11.169Z,88.34
2022-11-05T08:03:39.127Z,87.85
2022-11-05T08:06:07.477Z,87.46
2022-11-05T08:08:35.672Z,87.72
2022-11-05T08:11:04.854Z,87.40
2022-11-05T08:13:32.698Z,87.42
2022-11-05T08:16:02.637Z,87.37
2022-11-05T08:18:32.361Z,87.23
2022-11-05T08:21:01.663Z,86.90
2022-11-05T08:23:30.594Z,86.88
2022-11-05T08:25:59.335Z,86.66
2022-11-05T08:28:27.879Z,86.75
2022-11-05T08:30:57.820Z,86.54
2022-11-05T08:33:32.101Z,86.63
2022-11-05T08:36:04.075Z,86.33
2022-11-05T08:38:32.523Z,86.15
2022-11-05T08:41:00.784Z,85.69
2022-11-05T08:43:28.721Z,85.71
2022-11-05T08:45:56.778Z,85.17
2022-11-05T08:48:26.472Z,85.11
2022-11-05T08:50:54.778Z,84.21
2022-11-05T08:53:22.614Z,84.31
2022-11-05T08:55:51.561Z,84.18
2022-11-05T08:58:20.819Z,83.32
2022-11-05T09:00:51.147Z,83.47
2022-11-05T09:03:19.372Z,82.70
2022-11-05T09:05:49.524Z,82.03
2022-11-05T09:08:19.791Z,82.30
2022-11-05T09:10:49.841Z,81.57
2022-11-05T09:13:19.880Z,81.13
2022-11-05T09:15:48.920Z,81.11
2022-11-05T09:18:18.100Z,80.50
2022-11-05T09:20:49.247Z,79.87
2022-11-05T09:23:18.494Z,79.93
2022-11-05T09:25:46.441Z,80.02
2022-11-05T09:28:17.436Z,79.43
2022-11-05T09:30:47.500Z,79.57
2022-11-05T09:33:16.770Z,79.45
2022-11-05T09:35:44.802Z,79.39
2022-11-05T09:38:14.957Z,79.53
2022-11-05T09:40:50.053Z,79.26
2022-11-05T09:43:20.471Z,78.96
2022-11-05T09:45:51.366Z,79.23
2022-11-05T09:48:22.570Z,78.70
2022-11-05T09:50:53.298Z,78.42
2022-11-05T09:53:23.756Z,77.93
2022-11-05T09:55:56.140Z,77.89
2022-11-05T09:58:30.341Z,77.78
2022-11-05T10:00:59.634Z,76.83
2022-11-05T10:03:31.073Z,76.72
2022-11-05T10:06:08.635Z,76.45
2022-11-05T10:08:41.242Z,76.94
2022-11-05T10:11:17.030Z,76.32
2022-11-05T10:13:48.756Z,75.96
2022-11-05T10:16:24.441Z,75.05
2022-11-05T10:18:58.108Z,75.60
2022-11-05T10:21:51.338Z,75.18
2022-11-05T10:24:16.744Z,75.14
2022-11-05T10:26:49.003Z,74.79
2022-11-05T10:29:23.600Z,74.60
2022-11-05T10:31:54.307Z,74.08
2022-11-05T10:34:24.623Z,73.55
2022-11-05T10:36:54.272Z,73.03
2022-11-05T10:39:23.455Z,72.71
2022-11-05T10:42:09.744Z,72.25
2022-11-05T10:44:45.254Z,72.27
2022-11-05T10:47:34.427Z,72.12
2022-11-05T10:50:04.003Z,71.83
2022-11-05T10:52:44.292Z,72.04
2022-11-05T10:55:18.166Z,71.59
2022-11-05T10:57:49.454Z,72.04
2022-11-05T11:00:22.494Z,71.86
2022-11-05T11:02:52.262Z,71.60
2022-11-05T11:05:23.118Z,71.74
2022-11-05T11:07:57.421Z,71.83
2022-11-05T11:10:26.806Z,71.69
2022-11-05T11:12:57.550Z,71.73
2022-11-05T11:15:28.382Z,71.45
2022-11-05T11:17:57.020Z,70.49
2022-11-05T11:20:28.357Z,70.57
2022-11-05T11:23:04.775Z,70.53
2022-11-05T11:25:45.742Z,70.61
2022-11-05T11:28:21.466Z,69.81
2022-11-05T11:30:56.820Z,70.03
2022-11-05T11:33:28.577Z,69.99
2022-11-05T11:35:57.825Z,69.36
2022-11-05T11:38:26.637Z,69.54
2022-11-05T11:41:02.779Z,70.04
2022-11-05T11:43:36.632Z,70.32
2022-11-05T11:46:09.910Z,70.77
2022-11-05T11:48:42.193Z,70.10
2022-11-05T11:51:30.246Z,70.15
2022-11-05T11:53:59.402Z,69.93
2022-11-05T11:56:29.077Z,69.86
2022-11-05T11:59:02.431Z,69.67
2022-11-05T12:01:53.433Z,70.00
2022-11-05T12:04:40.075Z,69.47
2022-11-05T12:07:18.970Z,69.79
2022-11-05T12:10:15.532Z,69.58
2022-11-05T12:12:59.786Z,69.16
2022-11-05T12:15:42.520Z,68.91
2022-11-05T12:18:14.436Z,68.91
2022-11-05T12:21:40.792Z,69.46
2022-11-05T12:24:29.654Z,69.13
2022-11-05T12:53:29.348Z,67.47
2022-11-05T12:57:28.390Z,67.16
2022-11-05T13:54:59.263Z,65.09
2022-11-05T13:57:57.776Z,64.52
2022-11-05T14:00:57.436Z,64.24
2022-11-05T14:03:28.265Z,64.06
2022-11-05T14:06:07.160Z,64.10
2022-11-05T14:08:42.801Z,64.71
2022-11-05T14:11:23.633Z,64.34
2022-11-05T14:14:07.889Z,64.20
2022-11-05T14:16:53.266Z,64.28
2022-11-05T14:19:36.994Z,64.10
2022-11-05T14:23:06.035Z,64.46
2022-11-05T14:26:13.156Z,64.34
2022-11-05T14:28:47.817Z,63.18
2022-11-05T14:32:07.316Z,63.65
2022-11-05T14:34:48.333Z,62.65
2022-11-05T14:37:34.131Z,62.14
2022-11-05T14:40:27.265Z,62.83
2022-11-05T14:42:58.028Z,62.90
2022-11-05T14:45:31.640Z,63.03
2022-11-05T14:48:05.629Z,63.11
2022-11-05T14:50:40.141Z,62.97
2022-11-05T14:53:26.920Z,63.65
2022-11-05T14:56:01.580Z,62.99
2022-11-05T14:58:32.689Z,63.17
2022-11-05T15:01:05.228Z,64.04
2022-11-05T15:04:05.805Z,63.90
2022-11-05T15:06:36.427Z,64.15
2022-11-05T15:09:27.885Z,63.74
2022-11-05T15:12:05.251Z,63.91
2022-11-05T15:14:35.864Z,64.04
2022-11-05T15:17:16.844Z,64.28
2022-11-05T15:19:45.917Z,64.29
2022-11-05T15:22:27.670Z,64.57
2022-11-05T15:24:56.322Z,64.66
2022-11-05T15:27:37.014Z,64.35
2022-11-05T15:30:16.110Z,64.72
2022-11-05T15:32:45.597Z,64.48
2022-11-05T15:35:27.229Z,64.24
2022-11-05T15:38:02.573Z,64.14
2022-11-05T15:40:33.916Z,63.43
2022-11-05T15:43:17.738Z,63.69
2022-11-05T15:45:59.395Z,63.40
2022-11-05T15:48:28.777Z,63.06
2022-11-05T15:50:56.895Z,63.22
2022-11-05T15:53:56.000Z,62.84
2022-11-05T15:56:30.070Z,63.25
2022-11-05T15:59:02.065Z,63.10
2022-11-05T16:01:33.130Z,63.27
2022-11-05T16:04:11.815Z,63.09
2022-11-05T16:06:42.052Z,63.39
2022-11-05T16:09:22.615Z,63.47
2022-11-05T16:11:54.602Z,63.74
2022-11-05T16:14:22.538Z,63.65
2022-11-05T16:16:50.420Z,63.67
2022-11-05T16:19:40.475Z,63.58
2022-11-05T16:22:09.198Z,63.80
2022-11-05T16:24:40.344Z,63.57
2022-11-05T16:27:19.352Z,63.65
2022-11-05T16:29:53.591Z,63.82
2022-11-05T16:32:30.183Z,63.92
2022-11-05T16:35:02.867Z,63.96
2022-11-05T16:37:37.898Z,63.98
2022-11-05T16:40:14.395Z,64.22
2022-11-05T16:42:43.556Z,63.91
2022-11-05T16:45:14.927Z,63.87
2022-11-05T16:47:44.336Z,63.81
2022-11-05T16:50:23.375Z,64.41
2022-11-05T16:52:51.643Z,64.08
2022-11-05T16:55:20.920Z,64.11
2022-11-05T16:57:52.227Z,64.11
2022-11-05T17:00:21.911Z,64.27
2022-11-05T17:02:50.300Z,64.27
2022-11-05T17:05:22.789Z,64.66
2022-11-05T17:07:50.956Z,64.45
2022-11-05T17:10:19.662Z,64.84
2022-11-05T17:12:47.771Z,65.07
2022-11-05T17:15:20.931Z,65.15
2022-11-05T17:17:49.233Z,65.01
2022-11-05T17:20:35.000Z,64.92
2022-11-05T17:23:07.219Z,65.27
2022-11-05T17:25:35.392Z,65.59
2022-11-05T17:28:03.430Z,65.40
2022-11-05T17:30:31.409Z,65.64
2022-11-05T17:32:59.294Z,65.84
2022-11-05T17:35:28.584Z,65.86
2022-11-05T17:37:56.306Z,65.77
2022-11-05T17:40:25.090Z,66.22
2022-11-05T17:42:53.207Z,66.28
2022-11-05T17:45:21.082Z,66.40
2022-11-05T17:47:48.889Z,66.65
2022-11-05T17:50:18.630Z,66.66
2022-11-05T17:52:47.870Z,66.85
2022-11-05T17:55:18.240Z,66.85
2022-11-05T17:57:48.182Z,67.33
2022-11-05T18:00:17.957Z,67.01
2022-11-05T18:02:46.138Z,67.12
2022-11-05T18:05:14.465Z,67.09
2022-11-05T18:07:42.674Z,67.24
2022-11-05T18:10:12.016Z,67.32
2022-11-05T18:12:40.601Z,67.29
2022-11-05T18:15:09.334Z,67.56
2022-11-05T18:17:37.726Z,67.44
2022-11-05T18:20:11.622Z,67.58
2022-11-05T18:22:42.764Z,67.43
2022-11-05T18:25:13.853Z,67.79
2022-11-05T18:27:41.899Z,68.06
2022-11-05T18:30:11.645Z,68.31
2022-11-05T18:32:40.087Z,68.23
2022-11-05T18:35:08.390Z,68.60
2022-11-05T18:37:37.604Z,68.32
2022-11-05T18:40:06.137Z,68.36
2022-11-05T18:42:35.295Z,68.66
2022-11-05T18:45:03.201Z,68.56
2022-11-05T18:47:32.489Z,68.47
2022-11-05T18:50:00.379Z,68.67
2022-11-05T18:52:28.340Z,68.89
2022-11-05T18:54:56.134Z,68.76
2022-11-05T18:57:23.875Z,69.10
2022-11-05T18:59:53.090Z,69.38
2022-11-05T19:02:20.939Z,69.20
2022-11-05T19:05:13.980Z,69.73
2022-11-05T19:07:37.486Z,69.89
2022-11-05T19:10:06.063Z,69.42
2022-11-05T19:12:33.849Z,69.80
2022-11-05T19:15:03.469Z,69.35
2022-11-05T19:17:32.885Z,69.71
2022-11-05T19:20:00.713Z,69.40
2022-11-05T19:22:28.770Z,69.60
2022-11-05T19:24:56.543Z,69.44
2022-11-05T19:27:24.376Z,70.03
2022-11-05T19:29:52.790Z,69.77
2022-11-05T19:32:23.117Z,69.96
2022-11-05T19:34:50.887Z,70.21
2022-11-05T19:37:19.698Z,70.10
2022-11-05T19:39:47.496Z,70.51
2022-11-05T19:42:15.304Z,70.22
2022-11-05T19:44:43.131Z,70.49
2022-11-05T19:47:11.385Z,70.60
2022-11-05T19:49:40.779Z,70.88
2022-11-05T19:52:08.636Z,70.77
2022-11-05T19:54:36.676Z,70.83
2022-11-05T19:57:06.322Z,70.80
2022-11-05T19:59:34.140Z,70.68
2022-11-05T20:02:02.080Z,70.41
2022-11-05T20:04:30.210Z,70.52
2022-11-05T20:06:59.568Z,71.10
2022-11-05T20:09:27.600Z,71.10
2022-11-05T20:11:56.506Z,71.16
2022-11-05T20:14:26.292Z,70.83
2022-11-05T20:16:54.604Z,71.04
2022-11-05T20:19:23.640Z,71.52
2022-11-05T20:21:51.778Z,70.94
2022-11-05T20:24:25.070Z,71.46
2022-11-05T20:26:54.335Z,71.31
2022-11-05T20:29:23.525Z,71.44
2022-11-05T20:31:52.674Z,71.66
2022-11-05T20:34:20.708Z,71.80
2022-11-05T20:36:48.751Z,71.71
2022-11-05T20:39:18.362Z,71.75
2022-11-05T20:41:47.961Z,71.79
2022-11-05T20:44:16.617Z,71.84
2022-11-05T20:46:45.073Z,71.61
2022-11-05T20:49:13.429Z,71.27
2022-11-05T20:51:41.650Z,71.54
2022-11-05T20:54:11.038Z,71.46
2022-11-05T20:56:39.811Z,71.03
2022-11-05T20:59:10.052Z,71.08
2022-11-05T21:01:38.557Z,71.56
2022-11-05T21:04:07.059Z,71.60
2022-11-05T21:06:36.864Z,71.71
2022-11-05T21:09:06.184Z,71.59
2022-11-05T21:11:54.748Z,71.74
2022-11-05T21:14:24.470Z,71.71
2022-11-05T21:16:53.113Z,71.07
2022-11-05T21:19:23.946Z,71.26
2022-11-05T21:21:52.146Z,71.29
2022-11-05T21:24:20.056Z,70.29
2022-11-05T21:26:49.958Z,70.73
2022-11-05T21:29:18.071Z,70.68
2022-11-05T21:31:48.004Z,70.67
2022-11-05T21:34:16.187Z,70.30
2022-11-05T21:36:44.039Z,70.22
2022-11-05T21:39:13.672Z,70.61
2022-11-05T21:41:42.618Z,70.07
2022-11-05T21:44:10.722Z,70.41
2022-11-05T21:46:38.827Z,70.33
2022-11-05T21:49:07.993Z,70.47
2022-11-05T21:51:53.189Z,70.30
2022-11-05T21:54:38.120Z,70.36
2022-11-05T21:57:23.430Z,69.96
2022-11-05T21:59:55.050Z,70.11
2022-11-05T22:02:25.523Z,70.14
2022-11-05T22:04:56.411Z,70.09
2022-11-05T22:07:27.880Z,70.05
2022-11-05T22:09:56.139Z,70.14
2022-11-05T22:12:25.400Z,70.02
2022-11-05T22:14:55.898Z,69.65
2022-11-05T22:17:24.280Z,69.85
2022-11-05T22:19:52.432Z,69.94
2022-11-05T22:22:21.947Z,69.77
2022-11-05T22:24:49.779Z,69.77
2022-11-05T22:27:21.406Z,69.93
2022-11-05T22:29:49.663Z,69.80
2022-11-05T22:32:17.900Z,70.09
2022-11-05T22:34:45.746Z,70.19
2022-11-05T22:37:14.033Z,70.37
2022-11-05T22:39:43.174Z,70.10
2022-11-05T22:42:11.014Z,70.28
2022-11-05T22:44:38.929Z,70.26
2022-11-05T22:47:07.516Z,70.53
2022-11-05T22:49:35.948Z,70.05
2022-11-05T22:52:03.779Z,70.32
2022-11-05T22:54:36.360Z,70.06
2022-11-05T22:57:08.657Z,69.58
2022-11-05T22:59:36.481Z,69.83
2022-11-05T23:02:09.497Z,69.95
2022-11-05T23:04:38.033Z,70.09
2022-11-05T23:07:27.924Z,69.68
2022-11-05T23:10:14.036Z,70.17
2022-11-05T23:12:44.720Z,69.90
2022-11-05T23:15:34.481Z,69.73
2022-11-05T23:18:20.476Z,69.62
2022-11-05T23:21:06.168Z,69.75
2022-11-05T23:23:51.319Z,70.00
2022-11-05T23:26:39.271Z,69.90
2022-11-05T23:29:08.536Z,70.09
2022-11-05T23:31:53.851Z,70.37
2022-11-05T23:34:21.562Z,70.26
2022-11-05T23:37:06.939Z,70.34
2022-11-05T23:39:38.379Z,70.50
2022-11-05T23:42:26.756Z,70.28
2022-11-05T23:45:14.784Z,70.56
2022-11-05T23:48:00.776Z,70.75
2022-11-05T23:50:29.214Z,70.67
2022-11-05T23:52:56.961Z,70.99
2022-11-05T23:55:25.701Z,71.08
2022-11-05T23:57:53.590Z,70.97
